Shokyu Maru — JG5288 — position and weather

sailwx.info

Track history (hours):
 
Tides and Currents Weather Stations Pressure Air Temp Water Temp Dewpoint Dewpoint Depression Visibility Wind Speed Wind Dir Waves Ship Positions

Shokyu Maru

Last reported at 2015-May-03 09:33 UTC. Time now 2015-May-03 09:48 UTC.
Position N 35°30' E 139°46'.

Length 91 m; draft 3.9 m.

Type: Tanker. MMSI: 431000253.

Date/timePositionNaut miles runAvg speedWind from/ knotsBaromVisibWave heightAir tempDewpointWater temp
2015-May-03 09:33N 35°30' E 139°46'1 0.6
2015-May-03 08:32N 35°30' E 139°45'0 0.0
2015-May-03 07:32N 35°30' E 139°45'0 0.0
2015-May-03 06:32N 35°30' E 139°45'0 0.0
2015-May-03 05:32N 35°30' E 139°45'0 0.0
2015-May-03 04:29N 35°30' E 139°45'1 1.1
2015-May-03 03:34N 35°30' E 139°44'5 5.2
2015-May-03 02:34N 35°29' E 139°50'1111.0
2015-May-03 01:34N 35°38' E 139°59'3 2.8
2015-May-03 00:29N 35°41' E 139°56'0 0.0
2015-May-02 23:29N 35°41' E 139°56'0 0.0
2015-May-02 22:29N 35°41' E 139°56'2 2.3
2015-May-02 21:33N 35°39' E 139°58'5 3.6
2015-May-02 20:10N 35°35' E 139°55'0 0.0
2015-May-02 19:16N 35°35' E 139°55'0 0.0
2015-May-02 18:22N 35°35' E 139°55'0 0.0
2015-May-02 17:16N 35°35' E 139°55'0 0.0
2015-May-02 16:16N 35°35' E 139°55'0 0.0
2015-May-02 15:22N 35°35' E 139°55'0 0.0
2015-May-02 14:19N 35°35' E 139°55'0 0.0
2015-May-02 13:31N 35°35' E 139°55'0 0.0
2015-May-02 12:28N 35°35' E 139°55'0 0.0
2015-May-02 11:04N 35°35' E 139°55'0 0.0
2015-May-02 10:31N 35°35' E 139°55'0 0.0
2015-May-02 09:28N 35°35' E 139°55'5 5.1
2015-May-02 08:33N 35°31' E 139°58'3 2.9
2015-May-02 07:32N 35°29' E 140°01'0 0.0
2015-May-02 06:32N 35°29' E 140°01'0 0.0
2015-May-02 05:32N 35°29' E 140°01'0 0.0
2015-May-02 04:32N 35°29' E 140°01'0 0.0
2015-May-02 03:26N 35°29' E 140°01'0 0.2
2015-May-02 02:33N 35°29' E 140°01'1010.4
2015-May-02 01:33N 35°39' E 139°58'2 2.0
2015-May-02 00:31N 35°41' E 139°56'0 0.0
2015-May-01 22:25N 35°41' E 139°56'2 2.6
2015-May-01 21:32N 35°39' E 139°58'5 2.3
2015-May-01 19:30N 35°35' E 139°55'0 0.0
2015-May-01 18:33N 35°35' E 139°55'0 0.0
2015-May-01 17:27N 35°35' E 139°55'0 0.0
2015-May-01 16:33N 35°35' E 139°55'0 0.0
2015-May-01 15:33N 35°35' E 139°55'0 0.0
2015-May-01 14:33N 35°35' E 139°55'0 0.0
2015-May-01 13:33N 35°35' E 139°55'0 0.0
2015-May-01 12:33N 35°35' E 139°55'0 0.0
2015-May-01 11:33N 35°35' E 139°55'0 0.0
2015-May-01 10:27N 35°35' E 139°55'0 0.0
2015-May-01 09:27N 35°35' E 139°55'7 8.2
2015-May-01 08:33N 35°30' E 139°48'2 2.0
2015-May-01 07:33N 35°31' E 139°46'0 0.0
2015-May-01 06:33N 35°31' E 139°46'0 0.0
2015-May-01 05:33N 35°31' E 139°46'0 0.0
2015-May-01 04:33N 35°31' E 139°46'4 3.6
2015-May-01 03:34N 35°28' E 139°46'1010.3
2015-May-01 02:33N 35°35' E 139°55'6 4.6
2015-May-01 01:16N 35°41' E 139°56'0 0.0
2015-May-01 00:28N 35°41' E 139°56'0 0.0
2015-Apr-30 23:16N 35°41' E 139°56'0 0.0
2015-Apr-30 22:22N 35°41' E 139°56'2 2.1
2015-Apr-30 21:33N 35°39' E 139°58'5 5.2
2015-Apr-30 20:32N 35°34' E 139°55'0 0.0
2015-Apr-30 19:20N 35°34' E 139°55'0 0.0
2015-Apr-30 18:32N 35°34' E 139°55'0 0.0
2015-Apr-30 17:32N 35°34' E 139°55'0 0.0
2015-Apr-30 16:32N 35°34' E 139°55'0 0.1
2015-Apr-30 15:32N 35°34' E 139°55'0 0.0
2015-Apr-30 14:20N 35°34' E 139°55'0 0.0
2015-Apr-30 13:08N 35°35' E 139°55'0 0.1
2015-Apr-30 12:32N 35°35' E 139°55'0 0.1
2015-Apr-30 11:32N 35°35' E 139°55'4 4.3
2015-Apr-30 10:33N 35°32' E 139°51'1010.2
2015-Apr-30 09:33N 35°25' E 139°42'2 2.1
2015-Apr-30 08:31N 35°24' E 139°40'0 0.0
2015-Apr-30 07:31N 35°24' E 139°40'0 0.0
2015-Apr-30 06:31N 35°24' E 139°40'0 0.0
2015-Apr-30 05:31N 35°24' E 139°40'5 5.5
2015-Apr-30 04:33N 35°27' E 139°45'1111.0
2015-Apr-30 03:33N 35°35' E 139°55'6 5.8
2015-Apr-30 02:33N 35°41' E 139°56'0 0.0
2015-Apr-30 01:15N 35°41' E 139°56'0 0.0
2015-Apr-30 00:33N 35°41' E 139°56'0 0.0
2015-Apr-29 23:27N 35°41' E 139°56'2 2.3
2015-Apr-29 22:33N 35°39' E 139°58'5 4.7
2015-Apr-29 21:28N 35°34' E 139°55'0 0.0
2015-Apr-29 20:31N 35°34' E 139°55'0 0.0
2015-Apr-29 19:31N 35°34' E 139°55'0 0.0
2015-Apr-29 18:22N 35°34' E 139°55'0 0.0
2015-Apr-29 17:28N 35°34' E 139°55'0 0.0
2015-Apr-29 16:28N 35°34' E 139°55'4 4.4
2015-Apr-29 15:33N 35°31' E 139°58'3 3.1
2015-Apr-29 14:32N 35°29' E 140°01'0 0.0
2015-Apr-29 13:26N 35°29' E 140°01'0 0.0
2015-Apr-29 12:08N 35°29' E 140°01'0 0.0
2015-Apr-29 11:08N 35°29' E 140°01'0 0.0
2015-Apr-29 10:26N 35°29' E 140°01'0 0.0
2015-Apr-29 09:32N 35°29' E 140°01'0 0.0
2015-Apr-29 08:32N 35°29' E 140°01'6 6.2
2015-Apr-29 07:34N 35°33' E 139°56'1 1.2
2015-Apr-29 06:24N 35°34' E 139°55'0 0.0
2015-Apr-29 05:33N 35°34' E 139°55'0 0.0
2015-Apr-29 04:18N 35°34' E 139°55'0 0.0
2015-Apr-29 03:30N 35°34' E 139°55'0 0.1
2015-Apr-29 02:33N 35°34' E 139°55'6 5.3
2015-Apr-29 01:24N 35°41' E 139°56'0 0.0
2015-Apr-29 00:21N 35°41' E 139°56'0 0.0
2015-Apr-28 23:33N 35°41' E 139°56'0 0.0
2015-Apr-28 22:32N 35°41' E 139°56'3 2.7
2015-Apr-28 21:33N 35°38' E 139°58'5 4.4
2015-Apr-28 20:31N 35°35' E 139°55'0 0.0
2015-Apr-28 19:31N 35°35' E 139°55'0 0.0
2015-Apr-28 18:31N 35°35' E 139°55'0 0.0
2015-Apr-28 17:22N 35°35' E 139°55'0 0.0
2015-Apr-28 16:28N 35°35' E 139°55'0 0.0
2015-Apr-28 15:31N 35°35' E 139°55'0 0.0
2015-Apr-28 14:16N 35°35' E 139°55'0 0.0
2015-Apr-28 13:28N 35°35' E 139°55'0 0.0
2015-Apr-28 12:28N 35°35' E 139°55'0 0.0
2015-Apr-28 11:22N 35°35' E 139°55'1 1.6
2015-Apr-28 10:33N 35°34' E 139°54'8 7.8
2015-Apr-28 09:31N 35°30' E 139°45'0 0.0
2015-Apr-28 08:31N 35°30' E 139°45'0 0.0
2015-Apr-28 07:31N 35°30' E 139°45'0 0.0
2015-Apr-28 06:31N 35°30' E 139°45'0 0.0
2015-Apr-28 05:28N 35°30' E 139°45'2 2.7
2015-Apr-28 04:33N 35°28' E 139°45'1010.2
2015-Apr-28 03:33N 35°34' E 139°55'4 3.6
2015-Apr-28 02:33N 35°37' E 139°58'4 3.0
2015-Apr-28 01:17N 35°41' E 139°57'0 0.0
2015-Apr-28 00:32N 35°41' E 139°57'0 0.0
2015-Apr-27 23:14N 35°41' E 139°57'0 0.0
2015-Apr-27 22:29N 35°41' E 139°57'2 2.6
2015-Apr-27 21:32N 35°39' E 139°58'5 4.7
2015-Apr-27 20:32N 35°35' E 139°55'0 0.0
2015-Apr-27 19:32N 35°35' E 139°55'0 0.0
2015-Apr-27 18:32N 35°35' E 139°55'0 0.0
2015-Apr-27 17:32N 35°35' E 139°55'0 0.0
2015-Apr-27 16:32N 35°35' E 139°55'0 0.0
2015-Apr-27 15:32N 35°35' E 139°55'0 0.0
2015-Apr-27 14:32N 35°35' E 139°55'0 0.0
2015-Apr-27 13:20N 35°35' E 139°55'0 0.0
2015-Apr-27 12:32N 35°35' E 139°55'0 0.0
2015-Apr-27 11:30N 35°35' E 139°55'8 9.0
2015-Apr-27 10:33N 35°31' E 139°46'0 0.3
2015-Apr-27 09:31N 35°31' E 139°46'0 0.0
2015-Apr-27 08:31N 35°31' E 139°46'0 0.0
2015-Apr-27 07:31N 35°31' E 139°46'0 0.0
2015-Apr-27 06:31N 35°31' E 139°46'0 0.0
2015-Apr-27 05:33N 35°31' E 139°46'3 2.8
2015-Apr-27 04:33N 35°29' E 139°47'9 8.5
2015-Apr-27 03:33N 35°34' E 139°54'2 2.5
2015-Apr-27 02:33N 35°36' E 139°56'5 4.3
2015-Apr-27 01:28N 35°41' E 139°57'0 0.0
2015-Apr-27 00:31N 35°41' E 139°57'0 0.0
2015-Apr-26 23:22N 35°41' E 139°57'0 0.0
2015-Apr-26 22:16N 35°41' E 139°57'2 3.2
2015-Apr-26 21:33N 35°39' E 139°58'5 4.7
2015-Apr-26 20:32N 35°35' E 139°55'0 0.0
2015-Apr-26 19:32N 35°35' E 139°55'0 0.0
2015-Apr-26 18:32N 35°35' E 139°55'0 0.0
2015-Apr-26 17:33N 35°35' E 139°55'0 0.0
2015-Apr-26 16:08N 35°35' E 139°55'0 0.0
2015-Apr-26 14:32N 35°35' E 139°55'0 0.0
2015-Apr-26 13:33N 35°35' E 139°55'0 0.0
2015-Apr-26 12:26N 35°35' E 139°55'0 0.0
2015-Apr-26 11:32N 35°35' E 139°55'0 0.0
2015-Apr-26 10:32N 35°35' E 139°55'3 2.5
2015-Apr-26 09:33N 35°33' E 139°57'5 4.5
2015-Apr-26 08:29N 35°29' E 140°01'0 0.0
2015-Apr-26 07:17N 35°29' E 140°01'0 0.0
2015-Apr-26 06:29N 35°29' E 140°01'0 0.0
2015-Apr-26 05:29N 35°29' E 140°01'0 0.0
2015-Apr-26 04:23N 35°29' E 140°01'0 0.0
2015-Apr-26 03:29N 35°29' E 140°01'5 5.0
2015-Apr-26 02:33N 35°33' E 139°59'8 7.4
2015-Apr-26 01:30N 35°41' E 139°56'0 0.0
2015-Apr-26 00:30N 35°41' E 139°56'0 0.0
2015-Apr-25 23:30N 35°41' E 139°56'0 0.0
2015-Apr-25 22:30N 35°41' E 139°56'1 1.4
2015-Apr-25 21:33N 35°40' E 139°58'5 5.3
2015-Apr-25 20:32N 35°35' E 139°55'0 0.0
2015-Apr-25 19:32N 35°35' E 139°55'0 0.0
2015-Apr-25 17:14N 35°35' E 139°55'0 0.0
2015-Apr-25 16:32N 35°35' E 139°55'0 0.0
2015-Apr-25 15:32N 35°35' E 139°55'0 0.0
2015-Apr-25 14:23N 35°35' E 139°55'0 0.1
2015-Apr-25 13:32N 35°35' E 139°55'0 0.1
2015-Apr-25 12:32N 35°35' E 139°55'0 0.1
2015-Apr-25 11:32N 35°35' E 139°55'0 0.0
2015-Apr-25 10:32N 35°35' E 139°55'0 0.0
2015-Apr-25 09:32N 35°35' E 139°55'0 0.0
2015-Apr-25 08:33N 35°35' E 139°55'8 7.4
2015-Apr-25 07:29N 35°28' E 140°01'0 0.0
2015-Apr-25 06:32N 35°28' E 140°01'0 0.0
2015-Apr-25 05:32N 35°28' E 140°01'0 0.0
2015-Apr-25 04:26N 35°28' E 140°01'0 0.1
2015-Apr-25 03:27N 35°28' E 140°01'7 7.9
2015-Apr-25 02:33N 35°33' E 139°54'8 7.3
2015-Apr-25 01:29N 35°41' E 139°57'0 0.0
2015-Apr-25 00:29N 35°41' E 139°57'0 0.0
2015-Apr-24 23:05N 35°41' E 139°57'0 0.0
2015-Apr-24 22:32N 35°41' E 139°57'2 1.9
2015-Apr-24 21:33N 35°39' E 139°58'5 4.3
2015-Apr-24 20:24N 35°35' E 139°55'0 0.0
2015-Apr-24 19:18N 35°35' E 139°55'0 0.0
2015-Apr-24 18:30N 35°35' E 139°55'0 0.0
2015-Apr-24 17:30N 35°35' E 139°55'0 0.0
2015-Apr-24 16:31N 35°35' E 139°55'0 0.0
2015-Apr-24 15:29N 35°35' E 139°55'0 0.0
2015-Apr-24 14:20N 35°35' E 139°55'7 9.1
2015-Apr-24 13:34N 35°30' E 139°48'3 2.5
2015-Apr-24 12:32N 35°30' E 139°45'0 0.0
2015-Apr-24 11:32N 35°30' E 139°45'0 0.0
2015-Apr-24 10:32N 35°30' E 139°45'0 0.0
2015-Apr-24 09:32N 35°30' E 139°45'2 2.1
2015-Apr-24 08:33N 35°28' E 139°45'9 9.1
2015-Apr-24 07:33N 35°34' E 139°54'1 1.1
2015-Apr-24 06:31N 35°35' E 139°55'0 0.0
2015-Apr-24 05:30N 35°35' E 139°55'0 0.0
2015-Apr-24 04:24N 35°35' E 139°55'1 1.0
2015-Apr-24 03:33N 35°35' E 139°56'5 4.5
2015-Apr-24 02:23N 35°41' E 139°56'0 0.0
2015-Apr-24 01:17N 35°41' E 139°56'0 0.0
2015-Apr-24 00:29N 35°41' E 139°56'0 0.0
2015-Apr-23 23:29N 35°41' E 139°56'0 0.0
2015-Apr-23 22:23N 35°41' E 139°56'6 7.0
2015-Apr-23 21:32N 35°35' E 139°55'0 0.1
2015-Apr-23 20:31N 35°35' E 139°55'0 0.0
2015-Apr-23 19:13N 35°35' E 139°55'0 0.0
2015-Apr-23 18:22N 35°35' E 139°55'0 0.1
2015-Apr-23 17:31N 35°35' E 139°55'0 0.1
2015-Apr-23 16:31N 35°35' E 139°55'0 0.0
2015-Apr-23 15:19N 35°35' E 139°55'0 0.0
2015-Apr-23 14:25N 35°35' E 139°55'0 0.0
2015-Apr-23 13:28N 35°35' E 139°55'0 0.0
2015-Apr-23 12:13N 35°35' E 139°55'0 0.0
2015-Apr-23 11:28N 35°35' E 139°55'3 2.7
2015-Apr-23 10:33N 35°33' E 139°53'  
Track history (hours):
 
Tides and Currents Weather Stations Pressure Air Temp Water Temp Dewpoint Dewpoint Depression Visibility Wind Speed Wind Dir Waves Ship Positions

Shokyu Maru

Last reported at 2015-May-03 09:33 UTC. Time now 2015-May-03 09:48 UTC.
Position N 35°30' E 139°46'.

Length 91 m; draft 3.9 m.

Type: Tanker. MMSI: 431000253.

Date/timePositionNaut miles runAvg speedWind from/ knotsBaromVisibWave heightAir tempDewpointWater temp
2015-May-03 09:33N 35°30' E 139°46'1 0.6
2015-May-03 08:32N 35°30' E 139°45'0 0.0
2015-May-03 07:32N 35°30' E 139°45'0 0.0
2015-May-03 06:32N 35°30' E 139°45'0 0.0
2015-May-03 05:32N 35°30' E 139°45'0 0.0
2015-May-03 04:29N 35°30' E 139°45'1 1.1
2015-May-03 03:34N 35°30' E 139°44'5 5.2
2015-May-03 02:34N 35°29' E 139°50'1111.0
2015-May-03 01:34N 35°38' E 139°59'3 2.8
2015-May-03 00:29N 35°41' E 139°56'0 0.0
2015-May-02 23:29N 35°41' E 139°56'0 0.0
2015-May-02 22:29N 35°41' E 139°56'2 2.3
2015-May-02 21:33N 35°39' E 139°58'5 3.6
2015-May-02 20:10N 35°35' E 139°55'0 0.0
2015-May-02 19:16N 35°35' E 139°55'0 0.0
2015-May-02 18:22N 35°35' E 139°55'0 0.0
2015-May-02 17:16N 35°35' E 139°55'0 0.0
2015-May-02 16:16N 35°35' E 139°55'0 0.0
2015-May-02 15:22N 35°35' E 139°55'0 0.0
2015-May-02 14:19N 35°35' E 139°55'0 0.0
2015-May-02 13:31N 35°35' E 139°55'0 0.0
2015-May-02 12:28N 35°35' E 139°55'0 0.0
2015-May-02 11:04N 35°35' E 139°55'0 0.0
2015-May-02 10:31N 35°35' E 139°55'0 0.0
2015-May-02 09:28N 35°35' E 139°55'5 5.1
2015-May-02 08:33N 35°31' E 139°58'3 2.9
2015-May-02 07:32N 35°29' E 140°01'0 0.0
2015-May-02 06:32N 35°29' E 140°01'0 0.0
2015-May-02 05:32N 35°29' E 140°01'0 0.0
2015-May-02 04:32N 35°29' E 140°01'0 0.0
2015-May-02 03:26N 35°29' E 140°01'0 0.2
2015-May-02 02:33N 35°29' E 140°01'1010.4
2015-May-02 01:33N 35°39' E 139°58'2 2.0
2015-May-02 00:31N 35°41' E 139°56'0 0.0
2015-May-01 22:25N 35°41' E 139°56'2 2.6
2015-May-01 21:32N 35°39' E 139°58'5 2.3
2015-May-01 19:30N 35°35' E 139°55'0 0.0
2015-May-01 18:33N 35°35' E 139°55'0 0.0
2015-May-01 17:27N 35°35' E 139°55'0 0.0
2015-May-01 16:33N 35°35' E 139°55'0 0.0
2015-May-01 15:33N 35°35' E 139°55'0 0.0
2015-May-01 14:33N 35°35' E 139°55'0 0.0
2015-May-01 13:33N 35°35' E 139°55'0 0.0
2015-May-01 12:33N 35°35' E 139°55'0 0.0
2015-May-01 11:33N 35°35' E 139°55'0 0.0
2015-May-01 10:27N 35°35' E 139°55'0 0.0
2015-May-01 09:27N 35°35' E 139°55'7 8.2
2015-May-01 08:33N 35°30' E 139°48'2 2.0
2015-May-01 07:33N 35°31' E 139°46'0 0.0
2015-May-01 06:33N 35°31' E 139°46'0 0.0
2015-May-01 05:33N 35°31' E 139°46'0 0.0
2015-May-01 04:33N 35°31' E 139°46'4 3.6
2015-May-01 03:34N 35°28' E 139°46'1010.3
2015-May-01 02:33N 35°35' E 139°55'6 4.6
2015-May-01 01:16N 35°41' E 139°56'0 0.0
2015-May-01 00:28N 35°41' E 139°56'0 0.0
2015-Apr-30 23:16N 35°41' E 139°56'0 0.0
2015-Apr-30 22:22N 35°41' E 139°56'2 2.1
2015-Apr-30 21:33N 35°39' E 139°58'5 5.2
2015-Apr-30 20:32N 35°34' E 139°55'0 0.0
2015-Apr-30 19:20N 35°34' E 139°55'0 0.0
2015-Apr-30 18:32N 35°34' E 139°55'0 0.0
2015-Apr-30 17:32N 35°34' E 139°55'0 0.0
2015-Apr-30 16:32N 35°34' E 139°55'0 0.1
2015-Apr-30 15:32N 35°34' E 139°55'0 0.0
2015-Apr-30 14:20N 35°34' E 139°55'0 0.0
2015-Apr-30 13:08N 35°35' E 139°55'0 0.1
2015-Apr-30 12:32N 35°35' E 139°55'0 0.1
2015-Apr-30 11:32N 35°35' E 139°55'4 4.3
2015-Apr-30 10:33N 35°32' E 139°51'1010.2
2015-Apr-30 09:33N 35°25' E 139°42'2 2.1
2015-Apr-30 08:31N 35°24' E 139°40'0 0.0
2015-Apr-30 07:31N 35°24' E 139°40'0 0.0
2015-Apr-30 06:31N 35°24' E 139°40'0 0.0
2015-Apr-30 05:31N 35°24' E 139°40'5 5.5
2015-Apr-30 04:33N 35°27' E 139°45'1111.0
2015-Apr-30 03:33N 35°35' E 139°55'6 5.8
2015-Apr-30 02:33N 35°41' E 139°56'0 0.0
2015-Apr-30 01:15N 35°41' E 139°56'0 0.0
2015-Apr-30 00:33N 35°41' E 139°56'0 0.0
2015-Apr-29 23:27N 35°41' E 139°56'2 2.3
2015-Apr-29 22:33N 35°39' E 139°58'5 4.7
2015-Apr-29 21:28N 35°34' E 139°55'0 0.0
2015-Apr-29 20:31N 35°34' E 139°55'0 0.0
2015-Apr-29 19:31N 35°34' E 139°55'0 0.0
2015-Apr-29 18:22N 35°34' E 139°55'0 0.0
2015-Apr-29 17:28N 35°34' E 139°55'0 0.0
2015-Apr-29 16:28N 35°34' E 139°55'4 4.4
2015-Apr-29 15:33N 35°31' E 139°58'3 3.1
2015-Apr-29 14:32N 35°29' E 140°01'0 0.0
2015-Apr-29 13:26N 35°29' E 140°01'0 0.0
2015-Apr-29 12:08N 35°29' E 140°01'0 0.0
2015-Apr-29 11:08N 35°29' E 140°01'0 0.0
2015-Apr-29 10:26N 35°29' E 140°01'0 0.0
2015-Apr-29 09:32N 35°29' E 140°01'0 0.0
2015-Apr-29 08:32N 35°29' E 140°01'6 6.2
2015-Apr-29 07:34N 35°33' E 139°56'1 1.2
2015-Apr-29 06:24N 35°34' E 139°55'0 0.0
2015-Apr-29 05:33N 35°34' E 139°55'0 0.0
2015-Apr-29 04:18N 35°34' E 139°55'0 0.0
2015-Apr-29 03:30N 35°34' E 139°55'0 0.1
2015-Apr-29 02:33N 35°34' E 139°55'6 5.3
2015-Apr-29 01:24N 35°41' E 139°56'0 0.0
2015-Apr-29 00:21N 35°41' E 139°56'0 0.0
2015-Apr-28 23:33N 35°41' E 139°56'0 0.0
2015-Apr-28 22:32N 35°41' E 139°56'3 2.7
2015-Apr-28 21:33N 35°38' E 139°58'5 4.4
2015-Apr-28 20:31N 35°35' E 139°55'0 0.0
2015-Apr-28 19:31N 35°35' E 139°55'0 0.0
2015-Apr-28 18:31N 35°35' E 139°55'0 0.0
2015-Apr-28 17:22N 35°35' E 139°55'0 0.0
2015-Apr-28 16:28N 35°35' E 139°55'0 0.0
2015-Apr-28 15:31N 35°35' E 139°55'0 0.0
2015-Apr-28 14:16N 35°35' E 139°55'0 0.0
2015-Apr-28 13:28N 35°35' E 139°55'0 0.0
2015-Apr-28 12:28N 35°35' E 139°55'0 0.0
2015-Apr-28 11:22N 35°35' E 139°55'1 1.6
2015-Apr-28 10:33N 35°34' E 139°54'8 7.8
2015-Apr-28 09:31N 35°30' E 139°45'0 0.0
2015-Apr-28 08:31N 35°30' E 139°45'0 0.0
2015-Apr-28 07:31N 35°30' E 139°45'0 0.0
2015-Apr-28 06:31N 35°30' E 139°45'0 0.0
2015-Apr-28 05:28N 35°30' E 139°45'2 2.7
2015-Apr-28 04:33N 35°28' E 139°45'1010.2
2015-Apr-28 03:33N 35°34' E 139°55'4 3.6
2015-Apr-28 02:33N 35°37' E 139°58'4 3.0
2015-Apr-28 01:17N 35°41' E 139°57'0 0.0
2015-Apr-28 00:32N 35°41' E 139°57'0 0.0
2015-Apr-27 23:14N 35°41' E 139°57'0 0.0
2015-Apr-27 22:29N 35°41' E 139°57'2 2.6
2015-Apr-27 21:32N 35°39' E 139°58'5 4.7
2015-Apr-27 20:32N 35°35' E 139°55'0 0.0
2015-Apr-27 19:32N 35°35' E 139°55'0 0.0
2015-Apr-27 18:32N 35°35' E 139°55'0 0.0
2015-Apr-27 17:32N 35°35' E 139°55'0 0.0
2015-Apr-27 16:32N 35°35' E 139°55'0 0.0
2015-Apr-27 15:32N 35°35' E 139°55'0 0.0
2015-Apr-27 14:32N 35°35' E 139°55'0 0.0
2015-Apr-27 13:20N 35°35' E 139°55'0 0.0
2015-Apr-27 12:32N 35°35' E 139°55'0 0.0
2015-Apr-27 11:30N 35°35' E 139°55'8 9.0
2015-Apr-27 10:33N 35°31' E 139°46'0 0.3
2015-Apr-27 09:31N 35°31' E 139°46'0 0.0
2015-Apr-27 08:31N 35°31' E 139°46'0 0.0
2015-Apr-27 07:31N 35°31' E 139°46'0 0.0
2015-Apr-27 06:31N 35°31' E 139°46'0 0.0
2015-Apr-27 05:33N 35°31' E 139°46'3 2.8
2015-Apr-27 04:33N 35°29' E 139°47'9 8.5
2015-Apr-27 03:33N 35°34' E 139°54'2 2.5
2015-Apr-27 02:33N 35°36' E 139°56'5 4.3
2015-Apr-27 01:28N 35°41' E 139°57'0 0.0
2015-Apr-27 00:31N 35°41' E 139°57'0 0.0
2015-Apr-26 23:22N 35°41' E 139°57'0 0.0
2015-Apr-26 22:16N 35°41' E 139°57'2 3.2
2015-Apr-26 21:33N 35°39' E 139°58'5 4.7
2015-Apr-26 20:32N 35°35' E 139°55'0 0.0
2015-Apr-26 19:32N 35°35' E 139°55'0 0.0
2015-Apr-26 18:32N 35°35' E 139°55'0 0.0
2015-Apr-26 17:33N 35°35' E 139°55'0 0.0
2015-Apr-26 16:08N 35°35' E 139°55'0 0.0
2015-Apr-26 14:32N 35°35' E 139°55'0 0.0
2015-Apr-26 13:33N 35°35' E 139°55'0 0.0
2015-Apr-26 12:26N 35°35' E 139°55'0 0.0
2015-Apr-26 11:32N 35°35' E 139°55'0 0.0
2015-Apr-26 10:32N 35°35' E 139°55'3 2.5
2015-Apr-26 09:33N 35°33' E 139°57'5 4.5
2015-Apr-26 08:29N 35°29' E 140°01'0 0.0
2015-Apr-26 07:17N 35°29' E 140°01'0 0.0
2015-Apr-26 06:29N 35°29' E 140°01'0 0.0
2015-Apr-26 05:29N 35°29' E 140°01'0 0.0
2015-Apr-26 04:23N 35°29' E 140°01'0 0.0
2015-Apr-26 03:29N 35°29' E 140°01'5 5.0
2015-Apr-26 02:33N 35°33' E 139°59'8 7.4
2015-Apr-26 01:30N 35°41' E 139°56'0 0.0
2015-Apr-26 00:30N 35°41' E 139°56'0 0.0
2015-Apr-25 23:30N 35°41' E 139°56'0 0.0
2015-Apr-25 22:30N 35°41' E 139°56'1 1.4
2015-Apr-25 21:33N 35°40' E 139°58'5 5.3
2015-Apr-25 20:32N 35°35' E 139°55'0 0.0
2015-Apr-25 19:32N 35°35' E 139°55'0 0.0
2015-Apr-25 17:14N 35°35' E 139°55'0 0.0
2015-Apr-25 16:32N 35°35' E 139°55'0 0.0
2015-Apr-25 15:32N 35°35' E 139°55'0 0.0
2015-Apr-25 14:23N 35°35' E 139°55'0 0.1
2015-Apr-25 13:32N 35°35' E 139°55'0 0.1
2015-Apr-25 12:32N 35°35' E 139°55'0 0.1
2015-Apr-25 11:32N 35°35' E 139°55'0 0.0
2015-Apr-25 10:32N 35°35' E 139°55'0 0.0
2015-Apr-25 09:32N 35°35' E 139°55'0 0.0
2015-Apr-25 08:33N 35°35' E 139°55'8 7.4
2015-Apr-25 07:29N 35°28' E 140°01'0 0.0
2015-Apr-25 06:32N 35°28' E 140°01'0 0.0
2015-Apr-25 05:32N 35°28' E 140°01'0 0.0
2015-Apr-25 04:26N 35°28' E 140°01'0 0.1
2015-Apr-25 03:27N 35°28' E 140°01'7 7.9
2015-Apr-25 02:33N 35°33' E 139°54'8 7.3
2015-Apr-25 01:29N 35°41' E 139°57'0 0.0
2015-Apr-25 00:29N 35°41' E 139°57'0 0.0
2015-Apr-24 23:05N 35°41' E 139°57'0 0.0
2015-Apr-24 22:32N 35°41' E 139°57'2 1.9
2015-Apr-24 21:33N 35°39' E 139°58'5 4.3
2015-Apr-24 20:24N 35°35' E 139°55'0 0.0
2015-Apr-24 19:18N 35°35' E 139°55'0 0.0
2015-Apr-24 18:30N 35°35' E 139°55'0 0.0
2015-Apr-24 17:30N 35°35' E 139°55'0 0.0
2015-Apr-24 16:31N 35°35' E 139°55'0 0.0
2015-Apr-24 15:29N 35°35' E 139°55'0 0.0
2015-Apr-24 14:20N 35°35' E 139°55'7 9.1
2015-Apr-24 13:34N 35°30' E 139°48'3 2.5
2015-Apr-24 12:32N 35°30' E 139°45'0 0.0
2015-Apr-24 11:32N 35°30' E 139°45'0 0.0
2015-Apr-24 10:32N 35°30' E 139°45'0 0.0
2015-Apr-24 09:32N 35°30' E 139°45'2 2.1
2015-Apr-24 08:33N 35°28' E 139°45'9 9.1
2015-Apr-24 07:33N 35°34' E 139°54'1 1.1
2015-Apr-24 06:31N 35°35' E 139°55'0 0.0
2015-Apr-24 05:30N 35°35' E 139°55'0 0.0
2015-Apr-24 04:24N 35°35' E 139°55'1 1.0
2015-Apr-24 03:33N 35°35' E 139°56'5 4.5
2015-Apr-24 02:23N 35°41' E 139°56'0 0.0
2015-Apr-24 01:17N 35°41' E 139°56'0 0.0
2015-Apr-24 00:29N 35°41' E 139°56'0 0.0
2015-Apr-23 23:29N 35°41' E 139°56'0 0.0
2015-Apr-23 22:23N 35°41' E 139°56'6 7.0
2015-Apr-23 21:32N 35°35' E 139°55'0 0.1
2015-Apr-23 20:31N 35°35' E 139°55'0 0.0
2015-Apr-23 19:13N 35°35' E 139°55'0 0.0
2015-Apr-23 18:22N 35°35' E 139°55'0 0.1
2015-Apr-23 17:31N 35°35' E 139°55'0 0.1
2015-Apr-23 16:31N 35°35' E 139°55'0 0.0
2015-Apr-23 15:19N 35°35' E 139°55'0 0.0
2015-Apr-23 14:25N 35°35' E 139°55'0 0.0
2015-Apr-23 13:28N 35°35' E 139°55'0 0.0
2015-Apr-23 12:13N 35°35' E 139°55'0 0.0
2015-Apr-23 11:28N 35°35' E 139°55'3 2.7
2015-Apr-23 10:33N 35°33' E 139°53'  

Dump ship's entire track history